Time;durP1;ratioP1;P1;durP2;ratioP2;P2;SDS_P1;SDS_P2;PMS_P1;PMS_P2;Temp;Humidity;BMP_temperature;BMP_pressure;BME280_temperature;BME280_humidity;BME280_pressure;Samples;Min_cycle;Max_cycle;Signal;HPM_P1;HPM_P2
2021/06/29 04:46:51;;;;;;;4.32;0.90;;;;;;;13.25;100.00;92917.88;2096888;28;20044;-85
2021/06/29 04:47:54;;;;;;;0.80;0.80;;;;;;;13.25;100.00;92917.88;2105381;28;20055;-86
2021/06/29 04:48:58;;;;;;;1.48;0.98;;;;;;;13.20;100.00;92920.34;2086418;28;20037;-85
2021/06/29 04:49:59;;;;;;;0.85;0.85;;;;;;;13.28;100.00;92921.63;2081554;28;20032;-85
2021/06/29 04:51:56;;;;;;;0.82;0.82;;;;;;;13.25;100.00;92922.50;2093682;28;20043;-87
2021/06/29 04:52:56;;;;;;;1.40;1.00;;;;;;;13.30;100.00;92920.03;2111282;28;20072;-85
2021/06/29 04:53:57;;;;;;;1.10;1.08;;;;;;;13.26;100.00;92921.31;2097503;28;20028;-84
2021/06/29 04:54:58;;;;;;;2.35;0.90;;;;;;;13.31;100.00;92918.06;2081379;28;20093;-87
2021/06/29 04:56:19;;;;;;;1.23;1.08;;;;;;;13.31;100.00;92908.09;2097479;28;20033;-88
2021/06/29 04:57:19;;;;;;;1.65;1.15;;;;;;;13.34;100.00;92909.91;2084256;28;20052;-85
2021/06/29 04:58:20;;;;;;;0.85;0.85;;;;;;;13.34;100.00;92907.22;2084491;28;20508;-86
2021/06/29 04:59:21;;;;;;;1.23;1.00;;;;;;;13.44;100.00;92899.97;2093831;28;20444;-84
2021/06/29 05:00:21;;;;;;;0.88;0.88;;;;;;;13.45;100.00;92903.41;2101153;28;20445;-87
2021/06/29 05:01:22;;;;;;;4.75;1.10;;;;;;;13.44;100.00;92896.53;2093501;28;20024;-84
2021/06/29 05:02:23;;;;;;;0.80;0.80;;;;;;;13.46;100.00;92894.91;2085756;28;20029;-84
2021/06/29 05:03:24;;;;;;;1.95;0.95;;;;;;;13.45;100.00;92898.78;2097145;28;20082;-86
2021/06/29 05:04:24;;;;;;;1.13;0.85;;;;;;;13.44;100.00;92902.66;2088516;28;20086;-85
2021/06/29 05:05:25;;;;;;;0.82;0.82;;;;;;;13.52;100.00;92895.06;2074585;28;20022;-84
2021/06/29 05:06:26;;;;;;;2.40;1.13;;;;;;;13.46;100.00;92902.94;2084999;28;20060;-86
2021/06/29 05:07:26;;;;;;;1.67;1.00;;;;;;;13.50;100.00;92906.25;2097162;28;20031;-84
2021/06/29 05:08:27;;;;;;;0.80;0.80;;;;;;;13.49;100.00;92907.44;2093117;28;20027;-84
2021/06/29 05:09:28;;;;;;;0.80;0.80;;;;;;;13.51;100.00;92907.75;2093472;28;20016;-85
2021/06/29 05:10:28;;;;;;;1.92;1.00;;;;;;;13.54;100.00;92911.50;2093976;28;20024;-83
2021/06/29 05:11:29;;;;;;;1.17;0.88;;;;;;;13.53;100.00;92904.63;2095019;28;20389;-85
2021/06/29 05:12:30;;;;;;;0.80;0.80;;;;;;;13.52;100.00;92903.91;2096971;28;20021;-84
2021/06/29 05:13:31;;;;;;;0.90;0.90;;;;;;;13.49;100.00;92904.00;2104425;28;20632;-83
2021/06/29 05:14:32;;;;;;;1.85;1.00;;;;;;;13.51;100.00;92901.63;2097752;28;20027;-84
2021/06/29 05:15:32;;;;;;;0.85;0.75;;;;;;;13.60;100.00;92904.38;2096648;28;20062;-84
2021/06/29 05:16:33;;;;;;;0.70;0.70;;;;;;;13.50;100.00;92908.94;2096735;28;20137;-84
2021/06/29 05:17:35;;;;;;;0.85;0.85;;;;;;;13.44;100.00;92913.38;2102574;28;20020;-85
2021/06/29 05:18:35;;;;;;;0.70;0.70;;;;;;;13.51;100.00;92913.13;2091737;28;20461;-85
2021/06/29 05:20:13;;;;;;;0.82;0.82;;;;;;;13.55;100.00;92903.00;2094752;28;20031;-86
2021/06/29 05:21:14;;;;;;;1.17;1.08;;;;;;;13.58;100.00;92896.75;2097570;28;20149;-85
2021/06/29 05:22:15;;;;;;;1.10;1.00;;;;;;;13.63;100.00;92890.06;2078163;28;20702;-84
2021/06/29 05:23:16;;;;;;;0.65;0.65;;;;;;;13.67;100.00;92892.63;2088553;28;20031;-84
2021/06/29 05:24:17;;;;;;;1.92;0.90;;;;;;;13.74;100.00;92889.66;2100198;28;20123;-84
2021/06/29 05:25:18;;;;;;;1.20;0.88;;;;;;;13.77;100.00;92889.53;2105339;28;20452;-87
2021/06/29 05:26:19;;;;;;;1.00;0.90;;;;;;;13.78;100.00;92888.34;2093563;28;20028;-85
2021/06/29 05:27:20;;;;;;;2.45;0.90;;;;;;;13.79;100.00;92879.09;2083739;28;20489;-86
2021/06/29 05:28:24;;;;;;;1.02;0.80;;;;;;;13.84;100.00;92870.47;2096951;28;20029;-83
2021/06/29 05:29:25;;;;;;;0.90;0.90;;;;;;;13.85;100.00;92868.53;2085609;28;20033;-85
2021/06/29 05:30:26;;;;;;;0.70;0.70;;;;;;;13.84;100.00;92865.09;2088979;28;20120;-84
2021/06/29 05:31:27;;;;;;;1.52;0.90;;;;;;;13.90;100.00;92869.88;2093331;28;20027;-87
2021/06/29 05:32:27;;;;;;;1.20;0.90;;;;;;;13.97;100.00;92866.94;2092491;28;20491;-86
2021/06/29 05:33:28;;;;;;;3.13;0.90;;;;;;;13.84;100.00;92865.09;2093472;28;20032;-86
2021/06/29 05:34:29;;;;;;;0.70;0.70;;;;;;;13.93;100.00;92864.38;2093054;28;20040;-85
2021/06/29 05:35:29;;;;;;;1.02;0.93;;;;;;;13.92;100.00;92870.94;2105307;28;20044;-85
2021/06/29 05:36:30;;;;;;;0.70;0.70;;;;;;;13.89;100.00;92874.50;2101452;28;20051;-84
2021/06/29 05:37:31;;;;;;;0.95;0.95;;;;;;;13.92;100.00;92870.19;2096603;28;20028;-86
2021/06/29 05:38:32;;;;;;;0.80;0.80;;;;;;;13.93;100.00;92877.06;2097032;28;20524;-86
2021/06/29 05:39:32;;;;;;;1.95;0.85;;;;;;;13.99;100.00;92878.72;2088883;28;20028;-88
2021/06/29 05:40:34;;;;;;;0.85;0.85;;;;;;;13.98;100.00;92876.47;2074890;28;20548;-83
2021/06/29 05:41:35;;;;;;;2.08;1.02;;;;;;;14.02;100.00;92869.03;2072893;28;20128;-83
2021/06/29 05:42:36;;;;;;;0.82;0.82;;;;;;;14.04;100.00;92872.75;2080977;28;20044;-85
2021/06/29 05:43:37;;;;;;;3.97;0.98;;;;;;;13.99;100.00;92873.34;2097151;28;20557;-85
2021/06/29 05:44:38;;;;;;;0.95;0.93;;;;;;;13.94;100.00;92873.91;2088699;28;20021;-85
2021/06/29 05:45:39;;;;;;;1.65;1.10;;;;;;;14.04;100.00;92875.44;2097210;28;20028;-85
2021/06/29 05:46:42;;;;;;;2.80;1.10;;;;;;;14.03;100.00;92868.56;2080792;28;20029;-84
2021/06/29 05:47:43;;;;;;;1.10;1.00;;;;;;;14.02;100.00;92864.41;2079958;28;20572;-87
2021/06/29 05:48:44;;;;;;;4.30;1.08;;;;;;;14.01;100.00;92870.97;2072536;28;20112;-86
2021/06/29 05:49:45;;;;;;;0.90;0.90;;;;;;;14.01;100.00;92876.34;2072349;28;20022;-86
2021/06/29 05:50:46;;;;;;;1.30;1.10;;;;;;;14.03;100.00;92867.84;2072461;28;20026;-85
2021/06/29 05:51:47;;;;;;;1.50;1.10;;;;;;;14.02;100.00;92874.41;2080774;28;20029;-84
2021/06/29 05:52:48;;;;;;;1.75;1.00;;;;;;;13.98;100.00;92865.72;2080236;28;20390;-86
2021/06/29 05:53:49;;;;;;;1.58;0.90;;;;;;;13.99;100.00;92864.53;2080734;28;20025;-83
2021/06/29 05:54:51;;;;;;;0.90;0.90;;;;;;;13.89;100.00;92874.50;2080529;28;20026;-86
2021/06/29 05:55:52;;;;;;;1.27;1.08;;;;;;;13.84;100.00;92883.16;2081126;28;20017;-84
2021/06/29 05:56:53;;;;;;;1.15;1.08;;;;;;;13.93;100.00;92882.44;2088579;28;20419;-83
2021/06/29 05:57:53;;;;;;;0.90;0.90;;;;;;;14.06;100.00;92875.75;2080894;28;20025;-84
2021/06/29 05:58:54;;;;;;;1.02;0.80;;;;;;;14.07;100.00;92874.56;2088791;28;20028;-85
2021/06/29 05:59:55;;;;;;;1.05;0.90;;;;;;;14.18;100.00;92866.09;2088671;28;20445;-85
2021/06/29 06:00:56;;;;;;;0.90;0.90;;;;;;;14.30;100.00;92869.84;2088713;28;20021;-85
2021/06/29 06:01:57;;;;;;;1.08;0.98;;;;;;;14.33;100.00;92868.97;2096533;28;20056;-84
2021/06/29 06:02:57;;;;;;;2.92;0.82;;;;;;;14.35;100.00;92863.88;2096860;28;20464;-84
2021/06/29 06:03:58;;;;;;;0.77;0.77;;;;;;;14.47;100.00;92871.06;2105489;28;20028;-86
2021/06/29 06:04:59;;;;;;;0.80;0.80;;;;;;;14.47;100.00;92873.75;2088383;28;20039;-85
2021/06/29 06:05:59;;;;;;;0.70;0.70;;;;;;;14.46;100.00;92863.47;2097106;28;20062;-83
2021/06/29 06:07:01;;;;;;;0.93;0.80;;;;;;;14.51;100.00;92866.31;2097115;28;20025;-85
2021/06/29 06:08:02;;;;;;;0.88;0.88;;;;;;;14.47;100.00;92862.25;2088894;28;20021;-84
2021/06/29 06:09:03;;;;;;;0.77;0.73;;;;;;;14.50;100.00;92864.84;2088912;28;20081;-85
2021/06/29 06:10:06;;;;;;;0.88;0.88;;;;;;;14.44;100.00;92865.81;2088808;28;20060;-85
2021/06/29 06:11:07;;;;;;;1.77;0.93;;;;;;;14.55;100.00;92866.19;2096986;28;20024;-85
2021/06/29 06:12:08;;;;;;;0.85;0.80;;;;;;;14.55;100.00;92858.84;2088765;28;20413;-84
2021/06/29 06:13:09;;;;;;;0.90;0.90;;;;;;;14.45;100.00;92861.97;2080750;28;20033;-84
2021/06/29 06:14:10;;;;;;;1.00;1.00;;;;;;;14.63;100.00;92855.88;2080199;28;20399;-87
2021/06/29 06:15:11;;;;;;;0.80;0.80;;;;;;;14.64;100.00;92857.38;2097159;28;20025;-87
2021/06/29 06:16:12;;;;;;;0.80;0.80;;;;;;;14.67;100.00;92853.78;2105561;28;20154;-86
2021/06/29 06:17:13;;;;;;;1.02;0.90;;;;;;;14.73;100.00;92855.44;2105181;28;20566;-84
2021/06/29 06:18:14;;;;;;;0.85;0.85;;;;;;;14.72;100.00;92859.31;2096954;28;20028;-84
2021/06/29 06:19:15;;;;;;;0.70;0.70;;;;;;;14.76;100.00;92865.31;2080650;28;20056;-85
2021/06/29 06:20:18;;;;;;;1.10;1.00;;;;;;;14.79;100.00;92863.66;2088864;28;20025;-85
2021/06/29 06:21:18;;;;;;;1.17;1.10;;;;;;;14.73;100.00;92863.50;2105497;28;20063;-85
2021/06/29 06:22:21;;;;;;;1.15;0.90;;;;;;;14.79;100.00;92859.03;2097000;28;20052;-84
2021/06/29 06:23:22;;;;;;;0.82;0.70;;;;;;;14.88;100.00;92860.94;2088553;28;20468;-84
2021/06/29 06:24:22;;;;;;;0.90;0.90;;;;;;;14.95;100.00;92865.31;2088676;28;20031;-85
2021/06/29 06:25:23;;;;;;;0.70;0.70;;;;;;;14.98;100.00;92854.38;2088831;28;20119;-84
2021/06/29 06:26:24;;;;;;;0.70;0.70;;;;;;;14.97;100.00;92860.19;2088487;28;20086;-85
2021/06/29 06:27:28;;;;;;;1.20;1.08;;;;;;;14.85;100.00;92861.88;2080543;28;20048;-86
2021/06/29 06:28:29;;;;;;;0.70;0.70;;;;;;;14.85;100.00;92862.63;2101328;28;20075;-86
2021/06/29 06:29:29;;;;;;;2.15;0.75;;;;;;;14.86;100.00;92861.41;2096650;28;20022;-84
2021/06/29 06:30:30;;;;;;;1.02;0.73;;;;;;;14.99;100.00;92861.25;2080486;28;20021;-85
2021/06/29 06:31:31;;;;;;;0.90;0.90;;;;;;;15.02;100.00;92860.38;2089009;28;20408;-86
2021/06/29 06:32:32;;;;;;;0.88;0.88;;;;;;;15.04;100.00;92863.34;2088668;28;20032;-86
2021/06/29 06:33:33;;;;;;;1.90;0.90;;;;;;;14.93;100.00;92851.56;2097019;28;20748;-85
2021/06/29 06:34:34;;;;;;;0.82;0.82;;;;;;;14.86;100.00;92856.03;2096877;28;20112;-84
2021/06/29 06:35:35;;;;;;;0.80;0.80;;;;;;;14.95;100.00;92854.53;2096633;28;20028;-84
2021/06/29 06:36:36;;;;;;;1.02;0.98;;;;;;;14.85;100.00;92859.19;2096856;28;20103;-86
2021/06/29 06:37:37;;;;;;;0.93;0.90;;;;;;;14.94;100.00;92856.47;2080234;28;20030;-86
2021/06/29 06:38:38;;;;;;;0.70;0.70;;;;;;;15.00;100.00;92856.63;2088719;28;20029;-85
2021/06/29 06:39:38;;;;;;;1.10;1.00;;;;;;;15.15;100.00;92859.47;2088773;28;20538;-85
2021/06/29 06:40:39;;;;;;;2.33;1.27;;;;;;;15.09;100.00;92862.72;2088683;28;20035;-85
2021/06/29 06:41:40;;;;;;;1.13;0.82;;;;;;;15.12;100.00;92861.09;2096874;28;20513;-86
2021/06/29 06:42:41;;;;;;;1.38;0.90;;;;;;;15.21;100.00;92869.16;2088783;28;20028;-86
2021/06/29 06:43:44;;;;;;;2.08;1.23;;;;;;;15.31;100.00;92867.94;2097109;28;20055;-86
2021/06/29 06:44:44;;;;;;;0.95;0.90;;;;;;;15.22;100.00;92869.91;2080872;28;20064;-86
2021/06/29 06:45:45;;;;;;;1.35;1.25;;;;;;;15.20;100.00;92866.94;2088474;28;20021;-84
2021/06/29 06:46:46;;;;;;;1.02;0.80;;;;;;;15.31;100.00;92867.94;2104571;28;20035;-85
2021/06/29 06:47:46;;;;;;;1.55;0.90;;;;;;;15.39;100.00;92871.06;2102783;28;20040;-86
2021/06/29 06:48:48;;;;;;;1.08;1.00;;;;;;;15.40;100.00;92869.88;2099456;28;20036;-86
2021/06/29 06:49:49;;;;;;;2.30;1.08;;;;;;;15.38;100.00;92874.22;2099168;28;20115;-88
2021/06/29 06:50:50;;;;;;;0.75;0.73;;;;;;;15.45;100.00;92865.81;2091421;28;20025;-86
2021/06/29 06:51:51;;;;;;;1.20;1.10;;;;;;;15.31;100.00;92876.03;2093358;28;20024;-87
2021/06/29 06:52:52;;;;;;;0.90;0.90;;;;;;;15.30;100.00;92874.53;2096731;28;20142;-86
2021/06/29 06:53:52;;;;;;;3.03;0.90;;;;;;;15.42;100.00;92872.88;2089935;28;20017;-86
2021/06/29 06:54:53;;;;;;;1.48;1.02;;;;;;;15.56;97.95;92866.09;2082128;28;20076;-86
2021/06/29 06:55:54;;;;;;;1.35;0.90;;;;;;;15.53;99.05;92867.75;2082042;28;20029;-85
2021/06/29 06:56:54;;;;;;;0.90;0.90;;;;;;;15.60;97.53;92864.00;2090087;28;20035;-84
2021/06/29 06:58:38;;;;;;;1.27;0.80;;;;;;;15.56;100.00;92858.03;2090353;28;20024;-85
2021/06/29 06:59:39;;;;;;;0.90;0.90;;;;;;;15.67;100.00;92854.88;2098144;28;20032;-86
2021/06/29 07:00:40;;;;;;;0.98;0.80;;;;;;;15.57;100.00;92862.19;2082039;28;20612;-86
2021/06/29 07:01:41;;;;;;;1.10;1.00;;;;;;;15.46;100.00;92854.63;2093700;28;20107;-87
2021/06/29 07:02:42;;;;;;;1.00;0.90;;;;;;;15.58;100.00;92850.22;2092227;28;20024;-88
2021/06/29 07:03:44;;;;;;;0.80;0.80;;;;;;;15.46;98.94;92859.25;2090150;28;20523;-86
2021/06/29 07:04:44;;;;;;;4.05;1.00;;;;;;;15.38;100.00;92856.13;2098460;28;20075;-83
2021/06/29 07:05:45;;;;;;;1.30;1.02;;;;;;;15.38;98.84;92861.50;2093853;28;20469;-85
2021/06/29 07:06:46;;;;;;;1.10;0.95;;;;;;;15.42;99.64;92853.28;2098333;28;20024;-85
2021/06/29 07:07:47;;;;;;;2.88;0.85;;;;;;;15.33;99.56;92848.66;2102563;28;20039;-84
2021/06/29 07:08:48;;;;;;;0.80;0.80;;;;;;;15.41;100.00;92857.91;2088855;28;20025;-85
2021/06/29 07:09:48;;;;;;;1.10;1.00;;;;;;;15.42;100.00;92847.88;2098552;28;20033;-85
2021/06/29 07:10:53;;;;;;;1.38;0.90;;;;;;;15.53;96.08;92834.69;2090385;28;20017;-85
2021/06/29 07:11:53;;;;;;;0.82;0.82;;;;;;;15.52;96.63;92841.28;2105867;28;20756;-83
2021/06/29 07:12:54;;;;;;;0.75;0.75;;;;;;;15.61;95.44;92839.28;2094225;28;20029;-86
2021/06/29 07:13:55;;;;;;;1.63;0.82;;;;;;;15.73;95.43;92844.97;2094719;28;20029;-88
2021/06/29 07:14:55;;;;;;;1.23;0.80;;;;;;;15.63;99.72;92838.84;2107177;28;20020;-87
2021/06/29 07:15:56;;;;;;;0.80;0.80;;;;;;;15.52;100.00;92842.00;2107202;28;20016;-86
2021/06/29 07:16:57;;;;;;;0.80;0.80;;;;;;;15.58;99.92;92834.81;2098537;28;20020;-86
2021/06/29 07:17:58;;;;;;;0.93;0.70;;;;;;;15.54;96.14;92836.94;2098601;28;20545;-86
2021/06/29 07:18:58;;;;;;;2.58;1.30;;;;;;;15.52;99.33;92836.63;2090049;28;20087;-87
2021/06/29 07:19:59;;;;;;;0.80;0.80;;;;;;;15.45;97.28;92836.97;2098632;28;20115;-87
2021/06/29 07:20:59;;;;;;;1.60;1.38;;;;;;;15.54;100.00;92838.84;2090029;28;20071;-87
2021/06/29 07:22:00;;;;;;;1.90;0.93;;;;;;;15.55;100.00;92840.38;2090055;28;20021;-85
2021/06/29 07:23:01;;;;;;;0.73;0.73;;;;;;;15.73;100.00;92837.63;2098684;28;20741;-88
2021/06/29 07:24:02;;;;;;;0.75;0.70;;;;;;;15.98;96.20;92833.78;2098108;28;20415;-87
2021/06/29 07:25:05;;;;;;;1.35;0.85;;;;;;;16.08;99.45;92831.78;2090328;28;20052;-88
2021/06/29 07:26:06;;;;;;;0.70;0.60;;;;;;;15.98;90.72;92828.41;2082011;28;20040;-88
2021/06/29 07:27:08;;;;;;;0.82;0.70;;;;;;;15.93;97.90;92836.34;2081906;28;20575;-86
2021/06/29 07:28:09;;;;;;;0.82;0.77;;;;;;;15.89;91.65;92828.41;2090352;28;20031;-86
2021/06/29 07:29:10;;;;;;;0.73;0.68;;;;;;;15.79;97.70;92833.09;2089801;28;20021;-87
2021/06/29 07:30:12;;;;;;;0.60;0.60;;;;;;;15.84;96.76;92834.44;2090233;28;20111;-85
2021/06/29 07:31:12;;;;;;;0.77;0.77;;;;;;;15.78;96.79;92836.28;2102836;28;20099;-85
2021/06/29 07:32:13;;;;;;;1.02;0.70;;;;;;;15.78;95.77;92838.97;2115369;28;20028;-89
2021/06/29 07:33:14;;;;;;;0.50;0.50;;;;;;;15.73;98.97;92832.25;2115417;28;20031;-86
2021/06/29 07:34:14;;;;;;;0.80;0.80;;;;;;;15.60;98.72;92834.38;2115294;28;20034;-85
2021/06/29 07:35:15;;;;;;;3.28;0.73;;;;;;;15.64;100.00;92839.59;2098238;28;20459;-87
2021/06/29 07:36:17;;;;;;;0.55;0.55;;;;;;;15.68;94.73;92834.81;2090028;28;20752;-87
2021/06/29 07:37:17;;;;;;;0.60;0.60;;;;;;;15.67;94.52;92839.47;2099672;28;20549;-87
2021/06/29 07:38:18;;;;;;;0.65;0.60;;;;;;;15.53;93.91;92832.72;2106745;28;20032;-88
2021/06/29 07:39:19;;;;;;;1.23;0.50;;;;;;;15.42;94.49;92829.78;2106940;28;20538;-84
2021/06/29 07:40:19;;;;;;;0.70;0.70;;;;;;;15.31;96.97;92829.50;2106681;28;20016;-86
2021/06/29 07:41:20;;;;;;;1.05;0.50;;;;;;;15.41;97.17;92828.28;2106693;28;20086;-88
2021/06/29 07:42:21;;;;;;;2.13;0.57;;;;;;;15.40;93.60;92824.09;2106873;28;20023;-87
2021/06/29 07:43:22;;;;;;;1.05;0.50;;;;;;;15.32;95.96;92829.06;2098396;28;20024;-87
2021/06/29 07:44:22;;;;;;;0.75;0.52;;;;;;;15.24;98.55;92821.75;2098197;28;20382;-86
2021/06/29 07:45:27;;;;;;;0.82;0.73;;;;;;;15.14;97.07;92829.06;2090029;28;20563;-86
2021/06/29 07:46:28;;;;;;;1.10;0.60;;;;;;;15.30;97.37;92820.69;2091139;28;20472;-87
2021/06/29 07:47:29;;;;;;;0.50;0.50;;;;;;;15.29;95.37;92818.44;2106466;28;20572;-85
2021/06/29 07:48:30;;;;;;;0.65;0.65;;;;;;;15.49;98.12;92813.28;2098203;28;20032;-89
2021/06/29 07:49:30;;;;;;;0.60;0.60;;;;;;;15.71;98.50;92820.41;2081894;28;20091;-86
2021/06/29 07:50:32;;;;;;;0.60;0.60;;;;;;;15.83;97.33;92819.47;2081868;28;20136;-86
2021/06/29 07:51:33;;;;;;;1.33;0.88;;;;;;;15.89;96.36;92814.94;2090220;28;20021;-87
2021/06/29 07:52:35;;;;;;;0.50;0.50;;;;;;;16.03;92.87;92821.63;2106693;28;20119;-86
2021/06/29 07:53:37;;;;;;;1.83;0.80;;;;;;;16.09;92.30;92817.84;2089701;28;20032;-86
2021/06/29 07:54:38;;;;;;;0.70;0.70;;;;;;;16.09;94.14;92815.16;2082125;28;20025;-89
2021/06/29 07:55:38;;;;;;;0.70;0.50;;;;;;;16.10;92.58;92811.25;2098410;28;20032;-87
2021/06/29 07:56:39;;;;;;;0.70;0.70;;;;;;;16.14;93.50;92816.47;2107376;28;20547;-87
2021/06/29 07:57:40;;;;;;;0.70;0.70;;;;;;;16.15;93.31;92812.56;2098210;28;20046;-87
2021/06/29 07:58:42;;;;;;;1.17;0.80;;;;;;;16.24;91.15;92809.84;2081757;28;20484;-88
2021/06/29 07:59:43;;;;;;;1.30;0.70;;;;;;;16.16;91.59;92806.00;2081897;28;20021;-86
2021/06/29 08:00:44;;;;;;;1.70;0.50;;;;;;;16.21;90.74;92797.25;2089962;28;20484;-86
2021/06/29 08:01:45;;;;;;;0.90;0.70;;;;;;;16.36;94.16;92794.59;2089738;28;20041;-87
2021/06/29 08:02:45;;;;;;;0.50;0.50;;;;;;;16.48;94.12;92799.03;2090076;28;20029;-87
2021/06/29 08:03:47;;;;;;;0.80;0.73;;;;;;;16.61;90.61;92791.44;2106538;28;20024;-86
2021/06/29 08:04:48;;;;;;;1.02;0.70;;;;;;;16.63;90.94;92790.97;2098380;28;20103;-87
2021/06/29 08:05:49;;;;;;;2.35;0.63;;;;;;;16.41;94.10;92793.97;2098095;28;20025;-87
2021/06/29 08:06:50;;;;;;;1.05;0.60;;;;;;;16.59;90.13;92785.75;2098219;28;20044;-88
2021/06/29 08:07:51;;;;;;;0.60;0.52;;;;;;;16.66;90.07;92783.91;2098096;28;20027;-87
2021/06/29 08:08:51;;;;;;;1.00;0.60;;;;;;;16.60;91.10;92784.53;2098344;28;20388;-89
2021/06/29 08:09:52;;;;;;;1.05;0.50;;;;;;;16.78;91.48;92778.28;2098304;28;20055;-87
2021/06/29 08:10:52;;;;;;;0.70;0.70;;;;;;;16.68;90.69;92779.53;2098163;28;20025;-87
2021/06/29 08:11:53;;;;;;;0.57;0.57;;;;;;;16.65;92.69;92775.06;2094416;28;20044;-88
2021/06/29 08:12:54;;;;;;;0.45;0.45;;;;;;;16.83;90.30;92774.94;2081738;28;20021;-87
2021/06/29 08:13:55;;;;;;;1.05;0.60;;;;;;;16.88;91.76;92784.34;2073234;28;20021;-88
2021/06/29 08:14:55;;;;;;;0.52;0.52;;;;;;;17.15;85.02;92782.59;2072744;28;20021;-86
2021/06/29 08:15:56;;;;;;;0.77;0.50;;;;;;;16.81;88.11;92776.59;2073200;28;20022;-88
2021/06/29 08:16:58;;;;;;;1.20;0.60;;;;;;;16.78;86.17;92777.53;2089210;28;20565;-89
2021/06/29 08:17:58;;;;;;;0.55;0.55;;;;;;;16.83;89.36;92780.31;2093824;28;20032;-90
2021/06/29 08:18:59;;;;;;;1.88;0.80;;;;;;;16.83;88.21;92780.31;2090198;28;20116;-89
2021/06/29 08:20:00;;;;;;;1.60;0.68;;;;;;;16.88;87.69;92773.53;2106764;28;20043;-88
2021/06/29 08:21:18;;;;;;;1.70;0.68;;;;;;;16.97;89.89;92772.72;2097538;28;20020;-86
2021/06/29 08:22:19;;;;;;;0.82;0.57;;;;;;;17.04;92.02;92767.69;2097666;28;20020;-88
2021/06/29 08:23:20;;;;;;;1.33;0.50;;;;;;;17.04;88.23;92767.69;2093852;28;20083;-91
2021/06/29 08:24:20;;;;;;;2.30;0.50;;;;;;;17.03;85.60;92766.22;2097388;28;20029;-88
2021/06/29 08:25:22;;;;;;;1.65;0.55;;;;;;;17.26;83.80;92761.91;2101872;28;20058;-88
2021/06/29 08:26:23;;;;;;;0.47;0.40;;;;;;;17.44;85.95;92762.91;2088638;28;20029;-90
2021/06/29 08:27:23;;;;;;;0.60;0.52;;;;;;;17.50;85.20;92763.75;2075965;28;20159;-88
2021/06/29 08:28:33;;;;;;;0.70;0.70;;;;;;;17.39;87.84;92767.03;2087999;28;20044;-87
2021/06/29 08:29:34;;;;;;;1.58;0.80;;;;;;;17.40;87.75;92757.69;2101892;28;20027;-85
2021/06/29 08:30:34;;;;;;;0.88;0.57;;;;;;;17.46;90.01;92757.78;2104698;28;20047;-85
2021/06/29 08:31:37;;;;;;;0.70;0.63;;;;;;;17.50;88.13;92759.06;2096823;28;20031;-85
2021/06/29 08:32:38;;;;;;;1.52;0.70;;;;;;;17.50;86.42;92758.34;2090333;28;20048;-87
2021/06/29 08:33:39;;;;;;;0.60;0.60;;;;;;;17.56;84.22;92751.81;2092434;28;20025;-89
2021/06/29 08:34:39;;;;;;;0.55;0.55;;;;;;;17.51;88.22;92749.00;2094397;28;20016;-90
2021/06/29 08:35:42;;;;;;;0.82;0.63;;;;;;;17.57;88.69;92742.50;2088991;28;20028;-90
2021/06/29 08:36:43;;;;;;;0.90;0.50;;;;;;;17.63;84.10;92743.31;2087681;28;20022;-87
2021/06/29 08:37:45;;;;;;;0.50;0.50;;;;;;;17.79;86.86;92741.34;2083058;28;20034;-87
2021/06/29 08:38:46;;;;;;;0.73;0.47;;;;;;;17.74;83.63;92736.63;2091424;28;20093;-87
2021/06/29 08:39:47;;;;;;;0.52;0.52;;;;;;;17.69;86.40;92726.41;2084024;28;20517;-89
2021/06/29 08:40:47;;;;;;;1.00;0.60;;;;;;;17.79;87.30;92733.97;2090488;28;20116;-88
2021/06/29 08:41:48;;;;;;;0.50;0.50;;;;;;;17.93;86.74;92737.09;2089466;28;20092;-90
2021/06/29 08:42:49;;;;;;;0.40;0.40;;;;;;;17.84;85.52;92744.13;2081638;28;20144;-87
2021/06/29 08:43:51;;;;;;;0.50;0.50;;;;;;;18.00;80.31;92734.75;2073166;28;20623;-87
2021/06/29 08:44:52;;;;;;;0.57;0.50;;;;;;;17.95;85.17;92740.81;2081905;28;20022;-88
2021/06/29 08:45:55;;;;;;;0.65;0.65;;;;;;;18.00;90.20;92734.75;2089798;28;20048;-87
2021/06/29 08:46:55;;;;;;;0.50;0.50;;;;;;;18.03;85.76;92730.34;2089971;28;20044;-87
2021/06/29 08:47:56;;;;;;;0.60;0.40;;;;;;;17.99;87.07;92740.63;2089524;28;20112;-88
2021/06/29 08:48:57;;;;;;;1.08;0.57;;;;;;;18.08;84.78;92737.78;2098105;28;20089;-87
2021/06/29 08:49:57;;;;;;;0.50;0.50;;;;;;;18.18;81.76;92722.91;2081416;28;20071;-87
2021/06/29 08:51:04;;;;;;;0.35;0.30;;;;;;;18.33;82.44;92717.44;2073285;28;20022;-88
2021/06/29 08:52:07;;;;;;;0.63;0.60;;;;;;;18.52;83.73;92724.03;2074710;28;20090;-87
2021/06/29 08:53:11;;;;;;;0.85;0.57;;;;;;;18.28;84.92;92723.53;2082031;28;20060;-87
2021/06/29 08:54:14;;;;;;;0.52;0.50;;;;;;;18.31;80.07;92723.31;2081982;28;20048;-89
2021/06/29 08:55:14;;;;;;;1.05;0.60;;;;;;;18.18;82.90;92725.63;2090116;28;20494;-88
2021/06/29 08:56:15;;;;;;;0.30;0.30;;;;;;;18.43;81.11;92716.06;2089901;28;20078;-90
2021/06/29 08:57:16;;;;;;;0.50;0.50;;;;;;;18.44;83.30;92722.22;2089660;28;20031;-87
2021/06/29 08:58:22;;;;;;;0.70;0.47;;;;;;;18.18;83.30;92706.69;2073200;28;20037;-87
2021/06/29 08:59:23;;;;;;;0.98;0.50;;;;;;;18.17;87.08;92713.28;2083080;28;20021;-88
2021/06/29 09:00:24;;;;;;;0.47;0.47;;;;;;;18.07;80.93;92706.53;2089499;28;20017;-89
2021/06/29 09:01:29;;;;;;;0.80;0.60;;;;;;;18.20;83.47;92706.22;2081581;28;20466;-88
2021/06/29 09:02:30;;;;;;;1.20;0.60;;;;;;;18.26;84.29;92704.28;2081860;28;20733;-89
2021/06/29 09:03:30;;;;;;;1.95;0.60;;;;;;;18.09;85.83;92707.56;2073368;28;20025;-89
2021/06/29 09:04:59;;;;;;;0.43;0.40;;;;;;;18.29;86.12;92695.97;2081399;28;20033;-87
2021/06/29 09:06:00;;;;;;;1.33;0.77;;;;;;;18.71;85.29;92691.28;2092866;28;20019;-89
2021/06/29 09:07:24;;;;;;;0.73;0.50;;;;;;;18.84;77.31;92695.09;2089624;28;20079;-89
2021/06/29 09:08:25;;;;;;;0.52;0.52;;;;;;;18.86;77.83;92692.63;2095997;28;20023;-88
2021/06/29 09:09:27;;;;;;;1.13;0.57;;;;;;;18.70;77.47;92679.72;2097810;28;20099;-89
2021/06/29 09:10:28;;;;;;;4.10;0.80;;;;;;;18.89;81.61;92682.81;2089882;28;20025;-87
2021/06/29 09:11:35;;;;;;;0.45;0.40;;;;;;;18.90;82.00;92688.97;2097873;28;20063;-87
2021/06/29 09:12:49;;;;;;;2.10;0.60;;;;;;;18.96;79.79;92682.38;2085747;28;20112;-87
2021/06/29 09:14:13;;;;;;;1.08;0.60;;;;;;;19.33;82.48;92679.72;2083640;28;20034;-85
2021/06/29 09:15:44;;;;;;;0.63;0.52;;;;;;;19.45;79.66;92672.41;2086933;28;20055;-89
2021/06/29 09:16:47;;;;;;;1.05;0.47;;;;;;;19.49;79.73;92672.16;2081643;28;20032;-88
2021/06/29 09:17:48;;;;;;;1.33;0.70;;;;;;;19.56;80.89;92667.03;2089860;28;20024;-90
2021/06/29 09:18:48;;;;;;;2.30;0.60;;;;;;;19.56;81.36;92666.31;2098141;28;20055;-88
2021/06/29 09:19:49;;;;;;;0.73;0.47;;;;;;;19.65;75.80;92663.44;2106303;28;20016;-88
2021/06/29 09:20:59;;;;;;;2.45;0.52;;;;;;;19.42;82.32;92659.06;2094360;28;20021;-88
2021/06/29 09:22:30;;;;;;;0.40;0.40;;;;;;;19.85;77.14;92657.13;2103237;28;20113;-88
2021/06/29 09:23:35;;;;;;;0.50;0.50;;;;;;;19.91;76.18;92657.88;2085313;28;20029;-89
2021/06/29 09:24:35;;;;;;;1.08;0.43;;;;;;;19.44;79.21;92657.34;2082125;28;20021;-89
2021/06/29 09:25:37;;;;;;;0.47;0.47;;;;;;;19.33;82.93;92649.16;2089479;28;20025;-89
2021/06/29 09:26:40;;;;;;;0.50;0.50;;;;;;;19.45;74.67;92644.53;2081434;28;20026;-88
2021/06/29 09:27:46;;;;;;;0.55;0.40;;;;;;;19.44;78.15;92646.50;2073795;28;20104;-90
2021/06/29 09:29:00;;;;;;;2.17;0.60;;;;;;;19.20;79.52;92638.00;2082709;28;20033;-90
2021/06/29 09:30:02;;;;;;;4.32;0.50;;;;;;;19.38;76.53;92637.63;2082892;28;20064;-88
2021/06/29 09:31:10;;;;;;;0.50;0.50;;;;;;;19.31;79.91;92638.78;2089684;28;20021;-88
2021/06/29 09:32:19;;;;;;;2.17;0.52;;;;;;;19.33;84.74;92646.47;2089497;28;20033;-89
2021/06/29 09:33:34;;;;;;;0.95;0.50;;;;;;;19.10;78.23;92640.88;2083073;28;20025;-87
2021/06/29 09:34:34;;;;;;;0.95;0.40;;;;;;;19.15;86.77;92653.00;2091358;28;20021;-88
2021/06/29 09:35:36;;;;;;;0.50;0.50;;;;;;;19.37;77.63;92647.72;2094284;28;20024;-88
2021/06/29 09:36:39;;;;;;;1.48;0.55;;;;;;;19.63;76.48;92651.59;2097391;28;20457;-91
2021/06/29 09:37:45;;;;;;;1.75;0.50;;;;;;;19.60;79.67;92650.56;2098010;28;20020;-88
2021/06/29 09:38:48;;;;;;;0.57;0.40;;;;;;;19.70;79.03;92657.28;2090240;28;20079;-88